createdAt,value
2017-08-14T00:00:13.882Z,13.96
2017-08-14T00:00:54.414Z,13.97
2017-08-14T00:01:34.930Z,13.96
2017-08-14T00:02:15.482Z,13.95
2017-08-14T00:02:55.994Z,13.84
2017-08-14T00:03:36.549Z,13.91
2017-08-14T00:04:17.080Z,13.87
2017-08-14T00:04:57.596Z,13.84
2017-08-14T00:05:38.128Z,13.87
2017-08-14T00:06:18.650Z,13.78
2017-08-14T00:06:59.175Z,13.88
2017-08-14T00:07:39.708Z,13.87
2017-08-14T00:08:20.269Z,13.87
2017-08-14T00:09:00.724Z,13.89
2017-08-14T00:09:41.217Z,13.89
2017-08-14T00:10:21.719Z,13.87
2017-08-14T00:11:02.226Z,13.77
2017-08-14T00:11:42.760Z,13.75
2017-08-14T00:12:23.289Z,13.84
2017-08-14T00:13:03.812Z,13.85
2017-08-14T00:13:44.303Z,13.81
2017-08-14T00:14:24.848Z,13.78
2017-08-14T00:15:05.389Z,13.79
2017-08-14T00:15:45.911Z,13.82
2017-08-14T00:16:26.381Z,13.81
2017-08-14T00:17:06.872Z,13.67
2017-08-14T00:17:47.361Z,13.79
2017-08-14T00:18:27.851Z,13.71
2017-08-14T00:19:08.367Z,13.79
2017-08-14T00:19:48.849Z,13.78
2017-08-14T00:20:29.339Z,13.66
2017-08-14T00:21:09.832Z,13.7
2017-08-14T00:21:50.339Z,13.69
2017-08-14T00:22:30.800Z,13.7
2017-08-14T00:23:11.298Z,13.73
2017-08-14T00:23:51.821Z,13.7
2017-08-14T00:24:32.373Z,13.67
2017-08-14T00:25:12.892Z,13.75
2017-08-14T00:25:53.425Z,13.66
2017-08-14T00:26:33.957Z,13.67
2017-08-14T00:27:14.492Z,13.77
2017-08-14T00:27:55.027Z,13.71
2017-08-14T00:28:35.548Z,13.69
2017-08-14T00:29:16.098Z,13.7
2017-08-14T00:29:56.547Z,13.64
2017-08-14T00:30:37.038Z,13.7
2017-08-14T00:31:17.551Z,13.75
2017-08-14T00:31:58.039Z,13.69
2017-08-14T00:32:38.551Z,13.75
2017-08-14T00:33:19.054Z,13.73
2017-08-14T00:33:59.527Z,13.69
2017-08-14T00:34:40.019Z,13.7
2017-08-14T00:35:20.504Z,13.71
2017-08-14T00:36:00.997Z,13.7
2017-08-14T00:36:41.538Z,13.71
2017-08-14T00:37:22.004Z,13.73
2017-08-14T00:38:02.539Z,13.78
2017-08-14T00:38:43.081Z,13.71
2017-08-14T00:39:23.605Z,13.71
2017-08-14T00:40:04.120Z,13.69
2017-08-14T00:40:44.590Z,13.71
2017-08-14T00:41:25.107Z,13.73
2017-08-14T00:42:05.609Z,13.69
2017-08-14T00:42:46.100Z,13.7
2017-08-14T00:43:26.589Z,13.71
2017-08-14T00:44:07.076Z,13.7
2017-08-14T00:44:47.599Z,13.78
2017-08-14T00:45:28.118Z,13.66
2017-08-14T00:46:08.650Z,13.66
2017-08-14T00:46:49.187Z,13.69
2017-08-14T00:47:29.707Z,13.73
2017-08-14T00:48:10.230Z,13.73
2017-08-14T00:48:50.744Z,13.7
2017-08-14T00:49:31.253Z,13.69
2017-08-14T00:50:11.745Z,13.7
2017-08-14T00:50:52.258Z,13.71
2017-08-14T00:51:32.742Z,13.7
2017-08-14T00:52:13.235Z,13.69
2017-08-14T00:52:53.743Z,13.66
2017-08-14T00:53:34.280Z,13.66
2017-08-14T00:54:14.810Z,13.69
2017-08-14T00:54:55.341Z,13.69
2017-08-14T00:55:35.925Z,13.66
2017-08-14T00:56:16.453Z,13.75
2017-08-14T00:56:56.946Z,13.67
2017-08-14T00:57:37.444Z,13.67
2017-08-14T00:58:17.911Z,13.6
2017-08-14T00:58:58.401Z,13.64
2017-08-14T00:59:38.888Z,13.66
2017-08-14T01:00:19.364Z,13.69
2017-08-14T01:00:59.847Z,13.59
2017-08-14T01:01:40.357Z,13.55
2017-08-14T01:02:20.888Z,13.63
2017-08-14T01:03:01.427Z,13.55
2017-08-14T01:03:41.946Z,13.62
2017-08-14T01:04:22.421Z,13.57
2017-08-14T01:05:02.937Z,13.59
2017-08-14T01:05:43.471Z,13.6
2017-08-14T01:06:23.992Z,13.6
2017-08-14T01:07:04.477Z,13.57
2017-08-14T01:07:44.970Z,13.55
2017-08-14T01:08:25.476Z,13.55
2017-08-14T01:09:05.992Z,13.57
2017-08-14T01:09:46.497Z,13.57
2017-08-14T01:10:27.024Z,13.59
2017-08-14T01:11:07.561Z,13.57
2017-08-14T01:11:48.088Z,13.57
2017-08-14T01:12:28.641Z,13.59
2017-08-14T01:13:09.142Z,13.51
2017-08-14T01:13:49.671Z,13.59
2017-08-14T01:14:30.195Z,13.55
2017-08-14T01:15:10.727Z,13.55
2017-08-14T01:15:51.250Z,13.55
2017-08-14T01:16:31.755Z,13.52
2017-08-14T01:17:12.289Z,13.49
2017-08-14T01:17:52.834Z,13.51
2017-08-14T01:18:33.376Z,13.48
2017-08-14T01:19:13.896Z,13.57
2017-08-14T01:19:54.429Z,13.55
2017-08-14T01:20:35.048Z,13.49
2017-08-14T01:21:15.566Z,13.52
2017-08-14T01:21:57.811Z,13.45
2017-08-14T01:22:38.281Z,13.46
2017-08-14T01:23:18.789Z,13.42
2017-08-14T01:23:59.291Z,13.46
2017-08-14T01:24:39.779Z,13.45
2017-08-14T01:25:20.289Z,13.39
2017-08-14T01:26:00.830Z,13.54
2017-08-14T01:26:41.308Z,13.41
2017-08-14T01:27:21.808Z,13.46
2017-08-14T01:28:02.297Z,13.54
2017-08-14T01:28:42.816Z,13.41
2017-08-14T01:29:23.336Z,13.42
2017-08-14T01:30:03.861Z,13.44
2017-08-14T01:30:44.388Z,13.44
2017-08-14T01:31:24.847Z,13.42
2017-08-14T01:32:05.338Z,13.39
2017-08-14T01:32:45.836Z,13.46
2017-08-14T01:33:26.319Z,13.38
2017-08-14T01:34:06.792Z,13.39
2017-08-14T01:34:47.303Z,13.36
2017-08-14T01:35:27.766Z,13.44
2017-08-14T01:36:08.253Z,13.41
2017-08-14T01:36:48.751Z,13.41
2017-08-14T01:37:29.251Z,13.33
2017-08-14T01:38:09.738Z,13.33
2017-08-14T01:38:50.268Z,13.38
2017-08-14T01:39:30.804Z,13.39
2017-08-14T01:40:11.343Z,13.39
2017-08-14T01:40:51.882Z,13.32
2017-08-14T01:41:32.390Z,13.38
2017-08-14T01:42:12.932Z,13.32
2017-08-14T01:42:53.488Z,13.36
2017-08-14T01:43:34.059Z,13.32
2017-08-14T01:44:14.598Z,13.23
2017-08-14T01:44:55.089Z,13.42
2017-08-14T01:45:35.552Z,13.33
2017-08-14T01:46:16.040Z,13.3
2017-08-14T01:46:56.528Z,13.36
2017-08-14T01:47:37.027Z,13.41
2017-08-14T01:48:17.508Z,13.29
2017-08-14T01:48:58.015Z,13.29
2017-08-14T01:49:38.564Z,13.3
2017-08-14T01:50:19.086Z,13.28
2017-08-14T01:50:59.605Z,13.28
2017-08-14T01:51:40.079Z,13.33
2017-08-14T01:52:20.584Z,13.38
2017-08-14T01:53:01.112Z,13.28
2017-08-14T01:53:41.605Z,13.25
2017-08-14T01:54:22.134Z,13.32
2017-08-14T01:55:02.605Z,13.22
2017-08-14T01:55:43.169Z,13.32
2017-08-14T01:56:23.706Z,13.26
2017-08-14T01:57:04.236Z,13.26
2017-08-14T01:57:44.766Z,13.33
2017-08-14T01:58:25.228Z,13.33
2017-08-14T01:59:05.707Z,13.25
2017-08-14T01:59:46.189Z,13.28
2017-08-14T02:00:26.679Z,13.29
2017-08-14T02:01:07.192Z,13.28
2017-08-14T02:01:47.688Z,13.25
2017-08-14T02:02:28.205Z,13.25
2017-08-14T02:03:08.745Z,13.28
2017-08-14T02:03:49.273Z,13.23
2017-08-14T02:04:29.792Z,13.2
2017-08-14T02:05:10.317Z,13.23
2017-08-14T02:05:50.865Z,13.29
2017-08-14T02:06:31.395Z,13.28
2017-08-14T02:07:11.922Z,13.2
2017-08-14T02:07:52.454Z,13.26
2017-08-14T02:08:32.986Z,13.25
2017-08-14T02:09:13.519Z,13.26
2017-08-14T02:09:54.069Z,13.23
2017-08-14T02:10:34.567Z,13.23
2017-08-14T02:11:15.056Z,13.17
2017-08-14T02:11:55.545Z,13.2
2017-08-14T02:12:36.027Z,13.15
2017-08-14T02:13:16.512Z,13.22
2017-08-14T02:13:56.994Z,13.19
2017-08-14T02:14:37.464Z,13.2
2017-08-14T02:15:17.948Z,13.17
2017-08-14T02:15:58.436Z,13.19
2017-08-14T02:16:38.948Z,13.14
2017-08-14T02:17:19.470Z,13.14
2017-08-14T02:17:59.960Z,13.17
2017-08-14T02:18:40.438Z,13.2
2017-08-14T02:19:20.919Z,13.15
2017-08-14T02:20:01.421Z,13.17
2017-08-14T02:20:41.889Z,13.23
2017-08-14T02:21:22.360Z,13.22
2017-08-14T02:22:02.869Z,13.12
2017-08-14T02:22:43.372Z,13.17
2017-08-14T02:23:23.895Z,13.15
2017-08-14T02:24:04.449Z,13.19
2017-08-14T02:24:44.960Z,13.22
2017-08-14T02:25:25.502Z,13.23
2017-08-14T02:26:06.039Z,13.14
2017-08-14T02:26:46.556Z,13.12
2017-08-14T02:27:27.083Z,13.15
2017-08-14T02:28:07.618Z,13.12
2017-08-14T02:28:48.147Z,13.14
2017-08-14T02:29:28.687Z,13.17
2017-08-14T02:30:09.210Z,13.14
2017-08-14T02:30:49.727Z,13.07
2017-08-14T02:31:30.284Z,13.11
2017-08-14T02:32:10.802Z,13.1
2017-08-14T02:32:51.330Z,13.11
2017-08-14T02:33:31.872Z,13.1
2017-08-14T02:34:12.391Z,13
2017-08-14T02:34:52.928Z,13
2017-08-14T02:35:33.433Z,13.05
2017-08-14T02:36:13.952Z,13.03
2017-08-14T02:36:54.421Z,13.03
2017-08-14T02:37:34.928Z,13.01
2017-08-14T02:38:15.427Z,13.01
2017-08-14T02:38:55.922Z,12.97
2017-08-14T02:39:36.484Z,13.04
2017-08-14T02:40:16.941Z,13.04
2017-08-14T02:40:57.438Z,13.01
2017-08-14T02:41:37.904Z,13.05
2017-08-14T02:42:18.389Z,13.05
2017-08-14T02:42:58.873Z,13.1
2017-08-14T02:43:39.381Z,13.05
2017-08-14T02:44:19.917Z,13.07
2017-08-14T02:45:00.457Z,13.07
2017-08-14T02:45:40.986Z,13.05
2017-08-14T02:46:21.501Z,12.96
2017-08-14T02:47:02.036Z,13.07
2017-08-14T02:47:42.584Z,13.03
2017-08-14T02:48:23.086Z,12.96
2017-08-14T02:49:03.613Z,12.96
2017-08-14T02:49:44.079Z,12.96
2017-08-14T02:50:24.588Z,13
2017-08-14T02:51:05.045Z,12.95
2017-08-14T02:51:45.529Z,12.93
2017-08-14T02:52:26.014Z,12.97
2017-08-14T02:53:06.515Z,12.95
2017-08-14T02:53:47.001Z,12.95
2017-08-14T02:54:27.485Z,13.01
2017-08-14T02:55:07.971Z,12.96
2017-08-14T02:55:48.476Z,12.9
2017-08-14T02:56:28.973Z,12.92
2017-08-14T02:57:09.466Z,12.97
2017-08-14T02:57:49.948Z,12.93
2017-08-14T02:58:30.437Z,12.97
2017-08-14T02:59:10.957Z,12.95
2017-08-14T02:59:51.447Z,12.92
2017-08-14T03:00:31.977Z,12.92
2017-08-14T03:01:12.447Z,12.97
2017-08-14T03:01:54.823Z,12.97
2017-08-14T03:02:35.304Z,12.95
2017-08-14T03:03:15.785Z,12.9
2017-08-14T03:03:56.302Z,12.96
2017-08-14T03:04:36.826Z,12.93
2017-08-14T03:05:17.358Z,12.87
2017-08-14T03:05:57.892Z,12.86
2017-08-14T03:06:38.423Z,12.9
2017-08-14T03:07:18.912Z,12.87
2017-08-14T03:07:59.442Z,12.86
2017-08-14T03:08:39.919Z,12.87
2017-08-14T03:09:20.425Z,12.95
2017-08-14T03:10:00.918Z,12.86
2017-08-14T03:10:41.466Z,12.86
2017-08-14T03:11:21.968Z,12.83
2017-08-14T03:12:02.496Z,12.83
2017-08-14T03:12:43.018Z,12.82
2017-08-14T03:13:23.630Z,12.86
2017-08-14T03:14:04.162Z,12.78
2017-08-14T03:14:44.704Z,12.83
2017-08-14T03:15:25.236Z,12.85
2017-08-14T03:16:05.778Z,12.87
2017-08-14T03:16:46.310Z,12.82
2017-08-14T03:17:26.857Z,12.92
2017-08-14T03:18:07.375Z,12.87
2017-08-14T03:18:47.914Z,12.79
2017-08-14T03:19:28.447Z,12.79
2017-08-14T03:20:08.985Z,12.9
2017-08-14T03:20:49.517Z,12.9
2017-08-14T03:21:30.054Z,12.92
2017-08-14T03:22:10.593Z,12.83
2017-08-14T03:22:51.127Z,12.92
2017-08-14T03:23:31.654Z,12.83
2017-08-14T03:24:12.199Z,12.78
2017-08-14T03:24:52.737Z,12.82
2017-08-14T03:25:33.311Z,12.87
2017-08-14T03:26:14.099Z,12.82
2017-08-14T03:26:54.634Z,12.83
2017-08-14T03:27:35.166Z,12.83
2017-08-14T03:28:15.706Z,12.86
2017-08-14T03:28:56.239Z,12.83
2017-08-14T03:29:36.774Z,12.82
2017-08-14T03:30:17.340Z,12.86
2017-08-14T03:30:57.854Z,12.87
2017-08-14T03:31:38.401Z,12.9
2017-08-14T03:32:18.939Z,12.86
2017-08-14T03:32:59.447Z,12.89
2017-08-14T03:33:40.011Z,12.85
2017-08-14T03:34:20.536Z,13.01
2017-08-14T03:35:01.081Z,12.89
2017-08-14T03:35:41.594Z,12.93
2017-08-14T03:36:22.133Z,12.86
2017-08-14T03:37:02.664Z,12.93
2017-08-14T03:37:43.203Z,12.93
2017-08-14T03:38:23.737Z,12.95
2017-08-14T03:39:04.273Z,12.93
2017-08-14T03:39:44.798Z,12.97
2017-08-14T03:40:25.329Z,12.86
2017-08-14T03:41:05.857Z,12.95
2017-08-14T03:41:46.434Z,12.9
2017-08-14T03:42:26.970Z,12.89
2017-08-14T03:43:07.509Z,12.89
2017-08-14T03:43:48.048Z,12.97
2017-08-14T03:44:28.587Z,12.97
2017-08-14T03:45:09.108Z,12.97
2017-08-14T03:45:49.637Z,12.95
2017-08-14T03:46:30.409Z,12.96
2017-08-14T03:47:10.913Z,13.04
2017-08-14T03:47:51.444Z,12.96
2017-08-14T03:48:31.993Z,12.95
2017-08-14T03:49:12.494Z,12.9
2017-08-14T03:49:53.005Z,12.93
2017-08-14T03:50:33.541Z,12.87
2017-08-14T03:51:14.080Z,12.87
2017-08-14T03:51:54.599Z,12.97
2017-08-14T03:52:35.158Z,12.93
2017-08-14T03:53:15.640Z,12.87
2017-08-14T03:53:56.248Z,12.87
2017-08-14T03:54:36.763Z,12.89
2017-08-14T03:55:17.294Z,12.86
2017-08-14T03:55:57.789Z,12.87
2017-08-14T03:56:38.286Z,12.86
2017-08-14T03:57:18.819Z,12.93
2017-08-14T03:57:59.345Z,12.96
2017-08-14T03:58:39.873Z,12.86
2017-08-14T03:59:20.393Z,12.9
2017-08-14T04:00:00.919Z,12.87
2017-08-14T04:00:41.427Z,12.85
2017-08-14T04:01:21.932Z,12.87
2017-08-14T04:02:02.465Z,12.97
2017-08-14T04:02:42.993Z,12.86
2017-08-14T04:03:23.569Z,12.95
2017-08-14T04:04:04.087Z,13
2017-08-14T04:04:44.590Z,12.92
2017-08-14T04:05:25.112Z,12.96
2017-08-14T04:06:05.630Z,12.92
2017-08-14T04:06:46.143Z,12.97
2017-08-14T04:07:26.663Z,12.86
2017-08-14T04:08:07.197Z,12.95
2017-08-14T04:08:47.706Z,13
2017-08-14T04:09:28.220Z,12.86
2017-08-14T04:10:08.729Z,12.89
2017-08-14T04:10:49.239Z,12.87
2017-08-14T04:11:29.766Z,12.9
2017-08-14T04:12:10.284Z,12.9
2017-08-14T04:12:50.818Z,12.87
2017-08-14T04:13:31.349Z,12.85
2017-08-14T04:14:11.872Z,12.93
2017-08-14T04:14:52.437Z,12.85
2017-08-14T04:15:32.971Z,12.82
2017-08-14T04:16:13.505Z,12.86
2017-08-14T04:16:54.034Z,12.9
2017-08-14T04:17:34.587Z,12.85
2017-08-14T04:18:15.115Z,12.9
2017-08-14T04:18:55.617Z,12.82
2017-08-14T04:19:36.114Z,12.87
2017-08-14T04:20:16.630Z,12.92
2017-08-14T04:20:57.114Z,12.83
2017-08-14T04:21:37.610Z,12.83
2017-08-14T04:22:18.140Z,12.83
2017-08-14T04:22:58.647Z,12.89
2017-08-14T04:23:39.170Z,12.85
2017-08-14T04:24:19.716Z,12.79
2017-08-14T04:25:00.229Z,12.82
2017-08-14T04:25:40.747Z,12.83
2017-08-14T04:26:21.263Z,12.89
2017-08-14T04:27:01.809Z,12.9
2017-08-14T04:27:42.354Z,12.82
2017-08-14T04:28:22.875Z,12.86
2017-08-14T04:29:03.410Z,12.83
2017-08-14T04:29:43.942Z,12.83
2017-08-14T04:30:24.479Z,12.78
2017-08-14T04:31:05.013Z,12.82
2017-08-14T04:31:45.549Z,12.86
2017-08-14T04:32:26.129Z,12.82
2017-08-14T04:33:06.608Z,12.86
2017-08-14T04:33:47.099Z,12.82
2017-08-14T04:34:27.585Z,12.82
2017-08-14T04:35:08.110Z,12.86
2017-08-14T04:35:48.647Z,12.82
2017-08-14T04:36:29.154Z,12.85
2017-08-14T04:37:09.668Z,12.75
2017-08-14T04:37:50.166Z,12.82
2017-08-14T04:38:30.662Z,12.82
2017-08-14T04:39:11.177Z,12.86
2017-08-14T04:39:51.678Z,12.75
2017-08-14T04:40:32.224Z,12.83
2017-08-14T04:41:12.770Z,12.83
2017-08-14T04:41:53.289Z,12.78
2017-08-14T04:42:33.839Z,12.83
2017-08-14T04:43:14.374Z,12.82
2017-08-14T04:43:54.915Z,12.82
2017-08-14T04:44:35.435Z,12.85
2017-08-14T04:45:15.951Z,12.85
2017-08-14T04:45:56.449Z,12.79
2017-08-14T04:46:36.940Z,12.85
2017-08-14T04:47:17.427Z,12.83
2017-08-14T04:47:57.951Z,12.83
2017-08-14T04:48:38.460Z,12.79
2017-08-14T04:49:18.976Z,12.86
2017-08-14T04:49:59.482Z,12.78
2017-08-14T04:50:39.995Z,12.87
2017-08-14T04:51:20.497Z,12.77
2017-08-14T04:52:01.039Z,12.83
2017-08-14T04:52:41.531Z,12.82
2017-08-14T04:53:22.036Z,12.85
2017-08-14T04:54:02.565Z,12.85
2017-08-14T04:54:43.047Z,12.78
2017-08-14T04:55:23.564Z,12.86
2017-08-14T04:56:04.074Z,12.87
2017-08-14T04:56:44.541Z,12.75
2017-08-14T04:57:25.060Z,12.83
2017-08-14T04:58:05.565Z,12.89
2017-08-14T04:58:46.092Z,12.82
2017-08-14T04:59:26.615Z,12.82
2017-08-14T05:00:07.104Z,12.79
2017-08-14T05:00:47.594Z,12.82
2017-08-14T05:01:28.104Z,12.79
2017-08-14T05:02:08.628Z,12.89
2017-08-14T05:02:49.139Z,12.79
2017-08-14T05:03:29.690Z,12.78
2017-08-14T05:04:10.220Z,12.77
2017-08-14T05:04:50.726Z,12.82
2017-08-14T05:05:31.241Z,12.83
2017-08-14T05:06:11.769Z,12.85
2017-08-14T05:06:52.297Z,12.79
2017-08-14T05:07:32.821Z,12.75
2017-08-14T05:08:13.324Z,12.77
2017-08-14T05:08:53.860Z,12.79
2017-08-14T05:09:34.366Z,12.87
2017-08-14T05:10:14.860Z,12.82
2017-08-14T05:10:55.365Z,12.79
2017-08-14T05:11:36.097Z,12.86
2017-08-14T05:12:16.638Z,12.85
2017-08-14T05:12:57.163Z,12.87
2017-08-14T05:13:37.687Z,12.87
2017-08-14T05:14:18.246Z,12.86
2017-08-14T05:14:58.835Z,12.78
2017-08-14T05:15:39.405Z,12.89
2017-08-14T05:16:20.008Z,12.82
2017-08-14T05:17:00.575Z,12.78
2017-08-14T05:17:41.097Z,12.78
2017-08-14T05:18:21.628Z,12.89
2017-08-14T05:19:02.158Z,12.86
2017-08-14T05:19:42.740Z,12.85
2017-08-14T05:20:23.269Z,12.82
2017-08-14T05:21:03.874Z,12.77
2017-08-14T05:21:44.549Z,12.82
2017-08-14T05:22:25.404Z,12.86
2017-08-14T05:23:06.537Z,12.89
2017-08-14T05:23:47.013Z,12.83
2017-08-14T05:24:27.482Z,12.79
2017-08-14T05:25:08.029Z,12.79
2017-08-14T05:25:48.520Z,12.87
2017-08-14T05:26:29.052Z,12.87
2017-08-14T05:27:09.586Z,12.97
2017-08-14T05:27:50.132Z,12.9
2017-08-14T05:28:30.681Z,12.83
2017-08-14T05:29:11.238Z,12.95
2017-08-14T05:29:51.711Z,12.9
2017-08-14T05:30:32.174Z,12.95
2017-08-14T05:31:12.658Z,12.87
2017-08-14T05:31:53.147Z,12.86
2017-08-14T05:32:33.647Z,12.92
2017-08-14T05:33:14.157Z,12.97
2017-08-14T05:33:54.655Z,12.96
2017-08-14T05:34:35.222Z,12.86
2017-08-14T05:35:15.699Z,12.97
2017-08-14T05:35:56.202Z,13
2017-08-14T05:36:36.704Z,12.87
2017-08-14T05:37:17.241Z,12.87
2017-08-14T05:37:57.783Z,13
2017-08-14T05:38:38.289Z,12.87
2017-08-14T05:39:18.788Z,12.95
2017-08-14T05:39:59.316Z,12.92
2017-08-14T05:40:39.851Z,12.9
2017-08-14T05:41:20.376Z,12.92
2017-08-14T05:42:00.913Z,13
2017-08-14T05:42:41.434Z,12.96
2017-08-14T05:43:21.933Z,12.92
2017-08-14T05:44:02.482Z,12.93
2017-08-14T05:44:42.954Z,13
2017-08-14T05:45:23.460Z,12.95
2017-08-14T05:46:03.965Z,12.93
2017-08-14T05:46:44.497Z,12.96
2017-08-14T05:47:25.040Z,12.93
2017-08-14T05:48:05.533Z,12.93
2017-08-14T05:48:46.038Z,12.96
2017-08-14T05:49:26.626Z,13.07
2017-08-14T05:50:07.090Z,13.07
2017-08-14T05:50:47.610Z,13.04
2017-08-14T05:51:28.148Z,13.03
2017-08-14T05:52:08.681Z,13.03
2017-08-14T05:52:49.180Z,13.01
2017-08-14T05:53:29.709Z,13.08
2017-08-14T05:54:10.247Z,13.1
2017-08-14T05:54:50.739Z,13.1
2017-08-14T05:55:31.252Z,13.05
2017-08-14T05:56:11.712Z,13.14
2017-08-14T05:56:52.226Z,13.15
2017-08-14T05:57:32.797Z,13.2
2017-08-14T05:58:13.300Z,13.14
2017-08-14T05:58:53.822Z,13.25
2017-08-14T05:59:34.362Z,13.2
2017-08-14T06:00:14.939Z,13.25
2017-08-14T06:00:55.646Z,13.14
2017-08-14T06:01:36.150Z,13.14
2017-08-14T06:02:16.647Z,13.19
2017-08-14T06:02:57.154Z,13.23
2017-08-14T06:03:37.626Z,13.23
2017-08-14T06:04:18.254Z,13.26
2017-08-14T06:04:58.736Z,13.19
2017-08-14T06:05:39.265Z,13.22
2017-08-14T06:06:19.843Z,13.25
2017-08-14T06:07:00.353Z,13.25
2017-08-14T06:07:40.877Z,13.23
2017-08-14T06:08:21.421Z,13.3
2017-08-14T06:09:01.954Z,13.29
2017-08-14T06:09:42.502Z,13.38
2017-08-14T06:10:23.023Z,13.29
2017-08-14T06:11:03.586Z,13.23
2017-08-14T06:11:44.127Z,13.36
2017-08-14T06:12:24.632Z,13.48
2017-08-14T06:13:05.194Z,13.45
2017-08-14T06:13:45.681Z,13.39
2017-08-14T06:14:26.215Z,13.42
2017-08-14T06:15:06.750Z,13.44
2017-08-14T06:15:47.307Z,13.44
2017-08-14T06:16:27.849Z,13.45
2017-08-14T06:17:08.399Z,13.45
2017-08-14T06:17:48.937Z,13.54
2017-08-14T06:18:29.476Z,13.48
2017-08-14T06:19:09.982Z,13.57
2017-08-14T06:19:50.548Z,13.6
2017-08-14T06:20:31.034Z,13.57
2017-08-14T06:21:11.604Z,13.55
2017-08-14T06:21:52.241Z,13.63
2017-08-14T06:22:32.828Z,13.69
2017-08-14T06:23:13.373Z,13.66
2017-08-14T06:23:53.823Z,13.69
2017-08-14T06:24:34.307Z,13.67
2017-08-14T06:25:14.807Z,13.73
2017-08-14T06:25:55.368Z,13.75
2017-08-14T06:26:35.845Z,13.69
2017-08-14T06:27:16.373Z,13.78
2017-08-14T06:27:56.892Z,13.84
2017-08-14T06:28:37.402Z,13.87
2017-08-14T06:29:17.931Z,13.82
2017-08-14T06:29:58.460Z,13.81
2017-08-14T06:30:38.966Z,13.91
2017-08-14T06:31:19.499Z,13.87
2017-08-14T06:32:00.005Z,13.85
2017-08-14T06:32:40.528Z,13.87
2017-08-14T06:33:21.043Z,13.95
2017-08-14T06:34:01.575Z,13.99
2017-08-14T06:34:42.151Z,14
2017-08-14T06:35:22.653Z,13.92
2017-08-14T06:36:03.180Z,13.99
2017-08-14T06:36:43.673Z,14.02
2017-08-14T06:37:24.216Z,13.97
2017-08-14T06:38:04.738Z,14.04
2017-08-14T06:38:45.291Z,14.07
2017-08-14T06:39:25.804Z,14.02
2017-08-14T06:40:06.338Z,14.17
2017-08-14T06:40:46.868Z,14.22
2017-08-14T06:41:27.406Z,14.2
2017-08-14T06:42:07.937Z,14.2
2017-08-14T06:42:48.476Z,14.21
2017-08-14T06:43:28.990Z,14.28
2017-08-14T06:44:09.522Z,14.21
2017-08-14T06:44:50.056Z,14.37
2017-08-14T06:45:30.569Z,14.29
2017-08-14T06:46:11.088Z,14.36
2017-08-14T06:46:51.618Z,14.37
2017-08-14T06:47:32.145Z,14.39
2017-08-14T06:48:12.680Z,14.36
2017-08-14T06:48:53.213Z,14.45
2017-08-14T06:49:33.748Z,14.4
2017-08-14T06:50:14.277Z,14.45
2017-08-14T06:50:54.829Z,14.46
2017-08-14T06:51:35.330Z,14.55
2017-08-14T06:52:15.871Z,14.52
2017-08-14T06:52:56.414Z,14.57
2017-08-14T06:53:36.912Z,14.51
2017-08-14T06:54:17.421Z,14.58
2017-08-14T06:54:57.946Z,14.68
2017-08-14T06:55:38.459Z,14.62
2017-08-14T06:56:18.994Z,14.75
2017-08-14T06:56:59.514Z,14.69
2017-08-14T06:57:40.054Z,14.8
2017-08-14T06:58:20.587Z,14.8
2017-08-14T06:59:01.123Z,14.73
2017-08-14T06:59:41.661Z,14.72
2017-08-14T07:00:22.191Z,14.83
2017-08-14T07:01:02.709Z,14.86
2017-08-14T07:01:43.243Z,14.88
2017-08-14T07:02:23.782Z,14.91
2017-08-14T07:03:04.323Z,14.96
2017-08-14T07:03:44.850Z,14.94
2017-08-14T07:04:25.371Z,15.1
2017-08-14T07:05:05.914Z,15.03
2017-08-14T07:05:46.444Z,15.03
2017-08-14T07:06:27.004Z,15.17
2017-08-14T07:07:07.535Z,15.16
2017-08-14T07:07:48.063Z,15.2
2017-08-14T07:08:28.605Z,15.16
2017-08-14T07:09:09.128Z,15.17
2017-08-14T07:09:49.684Z,15.29
2017-08-14T07:10:30.215Z,15.35
2017-08-14T07:11:10.748Z,15.38
2017-08-14T07:11:51.275Z,15.49
2017-08-14T07:12:31.836Z,15.5
2017-08-14T07:13:12.438Z,15.62
2017-08-14T07:13:52.955Z,15.57
2017-08-14T07:14:33.502Z,15.68
2017-08-14T07:15:14.049Z,15.82
2017-08-14T07:15:54.594Z,15.82
2017-08-14T07:16:35.090Z,15.87
2017-08-14T07:17:15.619Z,15.94
2017-08-14T07:17:56.138Z,16.04
2017-08-14T07:18:36.668Z,16
2017-08-14T07:19:17.218Z,16.05
2017-08-14T07:19:57.747Z,15.97
2017-08-14T07:20:38.345Z,16.17
2017-08-14T07:21:18.895Z,16.24
2017-08-14T07:21:59.429Z,16.17
2017-08-14T07:22:39.956Z,16.3
2017-08-14T07:23:20.489Z,16.3
2017-08-14T07:24:01.049Z,16.43
2017-08-14T07:24:41.572Z,16.46
2017-08-14T07:25:22.108Z,16.6
2017-08-14T07:26:02.669Z,16.66
2017-08-14T07:26:43.198Z,16.7
2017-08-14T07:27:23.713Z,16.88
2017-08-14T07:28:04.242Z,16.94
2017-08-14T07:28:44.785Z,16.94
2017-08-14T07:29:25.315Z,16.96
2017-08-14T07:30:05.852Z,17.06
2017-08-14T07:30:46.375Z,17.11
2017-08-14T07:31:26.925Z,17.19
2017-08-14T07:32:07.511Z,17.23
2017-08-14T07:32:48.085Z,17.23
2017-08-14T07:33:28.596Z,17.4
2017-08-14T07:34:09.145Z,17.43
2017-08-14T07:34:49.672Z,17.49
2017-08-14T07:35:30.191Z,17.49
2017-08-14T07:36:10.744Z,17.56
2017-08-14T07:36:51.248Z,17.58
2017-08-14T07:37:31.757Z,17.77
2017-08-14T07:38:12.295Z,17.71
2017-08-14T07:38:52.822Z,17.84
2017-08-14T07:39:33.388Z,17.9
2017-08-14T07:40:13.969Z,17.92
2017-08-14T07:40:54.495Z,17.95
2017-08-14T07:41:35.084Z,17.99
2017-08-14T07:42:15.634Z,18
2017-08-14T07:42:56.160Z,18.05
2017-08-14T07:43:36.694Z,18.07
2017-08-14T07:44:17.225Z,18.03
2017-08-14T07:44:57.736Z,18.1
2017-08-14T07:45:38.259Z,18.1
2017-08-14T07:46:18.819Z,18.17
2017-08-14T07:46:59.343Z,18.2
2017-08-14T07:47:39.873Z,18.2
2017-08-14T07:48:20.376Z,18.15
2017-08-14T07:49:00.904Z,18.2
2017-08-14T07:49:41.496Z,18.21
2017-08-14T07:50:22.068Z,18.26
2017-08-14T07:51:02.622Z,18.32
2017-08-14T07:51:43.195Z,18.33
2017-08-14T07:52:23.726Z,18.27
2017-08-14T07:53:04.264Z,18.25
2017-08-14T07:53:44.773Z,18.37
2017-08-14T07:54:25.352Z,18.41
2017-08-14T07:55:05.894Z,18.41
2017-08-14T07:55:46.455Z,18.52
2017-08-14T07:56:27.063Z,18.54
2017-08-14T07:57:07.635Z,18.63
2017-08-14T07:57:48.178Z,18.65
2017-08-14T07:58:28.722Z,18.63
2017-08-14T07:59:09.271Z,18.7
2017-08-14T07:59:49.808Z,18.87
2017-08-14T08:00:30.395Z,18.98
2017-08-14T08:01:10.965Z,19.06
2017-08-14T08:01:51.512Z,19.07
2017-08-14T08:02:32.024Z,19.06
2017-08-14T08:03:12.592Z,18.88
2017-08-14T08:03:53.090Z,19.02
2017-08-14T08:04:33.592Z,19.06
2017-08-14T08:05:14.116Z,19.13
2017-08-14T08:05:54.686Z,19.26
2017-08-14T08:06:35.221Z,19.43
2017-08-14T08:07:15.735Z,19.66
2017-08-14T08:07:56.255Z,19.8
2017-08-14T08:08:36.789Z,19.91
2017-08-14T08:09:17.313Z,19.76
2017-08-14T08:09:57.838Z,19.78
2017-08-14T08:10:38.380Z,19.74
2017-08-14T08:11:18.858Z,19.91
2017-08-14T08:11:59.414Z,19.88
2017-08-14T08:12:39.921Z,19.96
2017-08-14T08:13:20.549Z,20.08
2017-08-14T08:14:01.253Z,20.17
2017-08-14T08:14:41.926Z,20.18
2017-08-14T08:15:23.270Z,20.18
2017-08-14T08:16:03.819Z,20.1
2017-08-14T08:16:44.405Z,20.08
2017-08-14T08:17:24.957Z,20.18
2017-08-14T08:18:05.553Z,20.2
2017-08-14T08:18:46.254Z,20.14
2017-08-14T08:19:26.900Z,20.21
2017-08-14T08:20:07.575Z,20.13
2017-08-14T08:20:48.181Z,20.14
2017-08-14T08:21:28.707Z,20.29
2017-08-14T08:22:09.180Z,20.31
2017-08-14T08:22:49.712Z,20.29
2017-08-14T08:23:30.283Z,20.41
2017-08-14T08:24:10.979Z,20.51
2017-08-14T08:24:51.681Z,20.59
2017-08-14T08:25:32.324Z,20.76
2017-08-14T08:26:13.020Z,20.87
2017-08-14T08:26:53.591Z,20.94
2017-08-14T08:27:34.096Z,20.97
2017-08-14T08:28:14.626Z,21.09
2017-08-14T08:28:55.177Z,21.19
2017-08-14T08:29:35.890Z,21.13
2017-08-14T08:30:16.535Z,21.19
2017-08-14T08:30:57.177Z,21.12
2017-08-14T08:31:37.789Z,21.1
2017-08-14T08:32:18.345Z,21.1
2017-08-14T08:32:58.906Z,21.13
2017-08-14T08:33:40.077Z,20.94
2017-08-14T08:34:21.080Z,20.95
2017-08-14T08:35:02.651Z,21.01
2017-08-14T08:35:43.191Z,21.12
2017-08-14T08:36:24.319Z,21.21
2017-08-14T08:37:06.698Z,21.34
2017-08-14T08:37:48.051Z,21.37
2017-08-14T08:38:31.013Z,21.53
2017-08-14T08:39:13.650Z,21.58
2017-08-14T08:39:57.790Z,21.71
2017-08-14T08:40:41.399Z,21.8
2017-08-14T08:41:23.828Z,21.91
2017-08-14T08:42:08.131Z,22.07
2017-08-14T08:42:51.575Z,22.1
2017-08-14T08:43:34.482Z,22.3
2017-08-14T08:44:17.211Z,22.24
2017-08-14T08:45:00.932Z,22.33